• Join FlightAware (Why Join?)
  • Login
  • US Flag 
12:00PM EDT


 

Airport Tracker/Info


-or-


 

Live Flight TrackerFlight Track Log ✈ ASQ6151 ✈ 11-May-2013 ✈ KGSO - KORD

Flight Track Log - Related Links

Times and Time Zones

All times are in EDT time to prevent confusion due to time zone crossing. See the ASQ6151 flight status page for this flight to view local times or setup timezone preferences in your user account.

Time Position Orientation Groundspeed Altitude Reporting Facility
EDT Latitude Longitude Course Direction KTS MPH feet Rate Location/Type
10:28AM 36.1356 -80.1206 302° West 251 289 7,300  Level Atlanta Center
10:29AM 36.1814 -80.1903 309° West 257 296 9,100 1,800 Climbing Atlanta Center
10:30AM 36.2275 -80.2578 310° West 252 290 11,000 1,500 Climbing Atlanta Center
10:31AM 36.2733 -80.3303 308° West 277 319 12,100 1,020 Climbing Atlanta Center
10:32AM 36.3658 -80.4152 307° West  Level FlightAware Approximate
10:32AM 36.3281 -80.4128 309° West 299 344 13,100  Level Atlanta Center
10:33AM 36.4130 -80.4939 307° West  Level FlightAware Approximate
10:33AM 36.3869 -80.5056 308° West 324 373 14,100  Level Atlanta Center
10:34AM 36.4551 -80.5768 302° West  Level FlightAware Approximate
10:34AM 36.4544 -80.6058 310° West 349 402 15,700  Level Atlanta Center
10:35AM 36.5156 -80.6986 309° West 355 409 17,300 1,500 Climbing Atlanta Center
10:36AM 36.5719 -80.7869 308° West 340 391 18,800 1,260 Climbing Atlanta Center
10:37AM 36.6267 -80.8778 307° West 332 382 19,900 1,200 Climbing Atlanta Center
10:38AM 36.6808 -80.9611 309° West 338 389 21,200 1,200 Climbing Atlanta Center
10:39AM 36.7372 -81.0547 307° West 338 389 22,300 1,020 Climbing Atlanta Center
10:40AM 36.7917 -81.1511 305° West 338 389 23,300 1,200 Climbing Atlanta Center
10:43AM 36.9281 -81.3608 309° West 352 405 26,200 1,260 Climbing Indianapolis Center
10:44AM 36.9944 -81.4714 307° West 340 391 27,500 840 Climbing Indianapolis Center
10:45AM 37.0508 -81.5642 307° West 340 391 28,000 360 Climbing Indianapolis Center
10:46AM 37.1161 -81.6597 311° West 360 414 28,300 720 Climbing Indianapolis Center
10:47AM 37.1956 -81.7436 320° Northwest 373 429 29,600 1,320 Climbing Indianapolis Center
10:48AM 37.2719 -81.8231 320° Northwest 360 414 31,100 1,560 Climbing Indianapolis Center
10:49AM 37.3636 -81.9092 323° Northwest 354 407 32,800 1,260 Climbing Indianapolis Center
10:50AM 37.4392 -81.9828 322° Northwest 346 398 33,800 900 Climbing Indianapolis Center
10:51AM 37.5156 -82.0578 322° Northwest 349 402 34,700 960 Climbing Indianapolis Center
10:52AM 37.5900 -82.1325 322° Northwest 345 397 35,800 600 Climbing Indianapolis Center
10:53AM 37.6631 -82.2078 321° Northwest 343 395 36,000 60 Climbing Indianapolis Center
10:54AM 37.7408 -82.2900 320° Northwest 362 417 36,000  Level Indianapolis Center
10:55AM 37.8347 -82.3894 320° Northwest 375 432 36,000  Level Indianapolis Center
10:56AM 37.9167 -82.4725 321° Northwest 379 436 36,000  Level Indianapolis Center
10:57AM 37.9969 -82.5569 320° Northwest 376 433 36,000  Level Indianapolis Center
10:58AM 38.0750 -82.6408 320° Northwest 369 425 36,000  Level Indianapolis Center
10:59AM 38.1308 -82.7458 304° West 360 414 36,000  Level Indianapolis Center
11:00AM 38.1872 -82.8497 305° West 357 411 36,000  Level Indianapolis Center
11:01AM 38.2536 -82.9767 304° West 368 423 36,000  Level Indianapolis Center
11:02AM 38.3111 -83.0858 304° West 372 428 36,000  Level Indianapolis Center
11:03AM 38.3747 -83.1894 308° West 372 428 36,000  Level Indianapolis Center
11:04AM 38.4544 -83.2786 319° Northwest 380 437 36,000  Level Indianapolis Center
11:05AM 38.5200 -83.3517 319° Northwest 374 430 36,000  Level Indianapolis Center
11:06AM 38.6122 -83.4572 318° Northwest 381 438 36,000  Level Indianapolis Center
11:07AM 38.6964 -83.5533 318° Northwest 388 447 36,000  Level Indianapolis Center
11:08AM 38.7792 -83.6469 319° Northwest 392 451 36,000  Level Indianapolis Center
11:09AM 38.8628 -83.7422 318° Northwest 398 458 36,000  Level Indianapolis Center
11:10AM 38.9472 -83.8394 318° Northwest 402 463 36,000  Level Indianapolis Center
11:11AM 39.0331 -83.9403 318° Northwest 412 474 36,000 -300 Level Indianapolis Center
11:12AM 39.1175 -84.0381 318° Northwest 405 466 35,400 -1,200 Descending Indianapolis Center
11:14AM 39.2144 -84.1503 318° Northwest 399 459 33,600 -1,680 Descending Indianapolis Center
11:15AM 39.3000 -84.2506 318° Northwest 408 470 32,000 -1,620 Descending Indianapolis Center
11:16AM 39.3853 -84.3503 318° Northwest 410 472 30,400 -1,500 Descending Indianapolis Center
11:17AM 39.4733 -84.4533 318° Northwest 419 482 28,900 -1,200 Descending Indianapolis Center
11:18AM 39.5636 -84.5606 318° Northwest 430 495 28,000 -480 Descending Indianapolis Center
11:19AM 39.6544 -84.6667 318° Northwest 433 498 28,000  Level Indianapolis Center
11:20AM 39.7450 -84.7742 318° Northwest 434 499 28,000  Level Indianapolis Center
11:21AM 39.8347 -84.8806 318° Northwest 432 497 28,000  Level Indianapolis Center
11:22AM 39.9158 -84.9783 317° Northwest 428 493 28,000 -240 Level Indianapolis Center
11:23AM 40.0189 -85.1025 317° Northwest 426 490 27,600 -840 Descending Indianapolis Center
11:24AM 40.1064 -85.2094 317° Northwest 431 496 26,400 -840 Descending Indianapolis Center
11:25AM 40.1931 -85.3125 318° Northwest 427 491 26,000 -240 Descending Indianapolis Center
11:26AM 40.2783 -85.4172 317° Northwest 423 487 26,000  Level Indianapolis Center
11:27AM 40.3297 -85.4781 318° Northwest 423 487 26,000  Level Chicago Center
11:28AM 40.4344 -85.6050 317° Northwest 429 494 26,000 -480 Level Chicago Center
11:29AM 40.5319 -85.6917 326° Northwest 441 507 25,100 -960 Descending Chicago Center
11:30AM 40.6486 -85.7400 343° North 443 510 24,100 -840 Descending Chicago Center
11:31AM 40.7631 -85.7961 340° North 439 505 23,400 -1,020 Descending Chicago Center
11:32AM 40.8767 -85.8472 341° North 432 497 22,100 -720 Descending Chicago Center
11:33AM 40.9858 -85.8969 341° North 418 481 22,000 -60 Descending Chicago Center
11:34AM 41.0939 -85.9483 340° North 414 476 22,000  Level Chicago Center
11:35AM 41.1694 -86.0828 307° West 378 435 22,000  Level Chicago Center
11:36AM 41.2167 -86.2078 297° West 379 436 22,000 -780 Level Chicago Center
11:37AM 41.2639 -86.3325 297° West 378 435 20,400 -1,980 Descending Chicago Center
11:38AM 41.3094 -86.4528 297° West 368 423 18,000 -2,340 Descending Chicago Center
11:39AM 41.3514 -86.5647 297° West 344 396 15,700 -2,280 Descending Chicago Center
11:40AM 41.3925 -86.6725 297° West 331 381 13,400 -1,800 Descending Chicago Center
11:41AM 41.4878 -86.7494 329° Northwest 342 394 12,100 -660 Descending Chicago Center
11:42AM 41.5678 -86.7850 342° North 316 364 12,100  Level Chicago Center
11:43AM 41.6478 -86.7931 356° North 295 339 12,100  Level Chicago Center
11:44AM 41.7289 -86.8031 355° North 294 338 12,100  Level Chicago Center
11:45AM 41.8089 -86.8169 353° North 292 336 12,100  Level Chicago Center
11:46AM 41.8836 -86.8506 341° North 293 337 12,100 -540 Level Chicago Center
11:47AM 41.9336 -86.9458 305° West 267 307 11,100 -960 Descending Chicago Center
11:48AM 41.9550 -87.0228 291° West 223 257 10,200 -960 Descending Chicago Center
11:49AM 41.9625 -87.0944 278° West 196 226 9,200 -900 Descending Chicago Center
11:50AM 41.9683 -87.1572 277° West 176 203 8,400 -780 Descending Chicago Center
11:51AM 41.9753 -87.2186 279° West 170 196 7,700 -720 Descending Chicago Center
11:52AM 41.9800 -87.2769 276° West 161 185 7,000 -360 Descending Chicago Center
11:53AM 41.9825 -87.3475 273° West 160 184 7,000  Level Chicago Center
11:54AM 41.9822 -87.4042 270° West 155 178 7,000  Level Chicago Center
11:55AM 41.9833 -87.4333 273° West 159 183 7,000 -360 Level Chicago TRACON
11:56AM 41.9833 -87.4833 270° West 161 185 6,500 -600 Descending Chicago TRACON
11:57AM 41.9833 -87.5333 270° West 157 181 5,900 -780 Descending Chicago TRACON
11:58AM 41.9833 -87.6000 270° West 157 181 5,100 -900 Descending Chicago TRACON
11:59AM 41.9833 -87.6500 270° West 152 175 4,100 -900 Descending Chicago TRACON
12:00PM 41.9833 -87.7167 270° West 156 180 3,300 -900 Descending Chicago TRACON
12:00PM 41.9833 -87.7667 270° West 152 175 2,500 -840 Descending Chicago TRACON
12:01PM 41.9833 -87.8167 270° West 121 139 1,800 -720 Descending Chicago TRACON
12:02PM 41.9833 -87.8667 270° West 117 135 1,100 -720 Descending Chicago TRACON
12:04PM 41.9667 -87.9000 270° West  Level FlightAware Approximate
12:11PM 41.9817 -87.9067 270° West  Level Estimated